sensor_id;sensor_type;location;lat;lon;timestamp;P1;durP1;ratioP1;P2;durP2;ratioP2
28653;SDS011;24320;56.980;24.336;2022-10-15T00:01:21;18.05;;;8.23;;
28653;SDS011;24320;56.980;24.336;2022-10-15T00:03:48;18.25;;;7.93;;
28653;SDS011;24320;56.980;24.336;2022-10-15T00:06:16;12.48;;;7.88;;
28653;SDS011;24320;56.980;24.336;2022-10-15T00:08:46;17.52;;;8.43;;
28653;SDS011;24320;56.980;24.336;2022-10-15T00:11:14;17.17;;;8.80;;
28653;SDS011;24320;56.980;24.336;2022-10-15T00:13:47;16.30;;;7.50;;
28653;SDS011;24320;56.980;24.336;2022-10-15T00:16:16;17.23;;;8.07;;
28653;SDS011;24320;56.980;24.336;2022-10-15T00:18:44;17.05;;;7.85;;
28653;SDS011;24320;56.980;24.336;2022-10-15T00:21:12;14.77;;;7.28;;
28653;SDS011;24320;56.980;24.336;2022-10-15T00:23:41;18.15;;;7.75;;
28653;SDS011;24320;56.980;24.336;2022-10-15T00:26:10;20.85;;;7.88;;
28653;SDS011;24320;56.980;24.336;2022-10-15T00:28:37;17.00;;;7.95;;
28653;SDS011;24320;56.980;24.336;2022-10-15T00:31:06;17.10;;;7.57;;
28653;SDS011;24320;56.980;24.336;2022-10-15T00:33:37;15.45;;;7.65;;
28653;SDS011;24320;56.980;24.336;2022-10-15T00:36:09;14.43;;;7.93;;
28653;SDS011;24320;56.980;24.336;2022-10-15T00:38:39;15.13;;;7.70;;
28653;SDS011;24320;56.980;24.336;2022-10-15T00:41:07;18.88;;;8.75;;
28653;SDS011;24320;56.980;24.336;2022-10-15T00:43:52;16.70;;;8.43;;
28653;SDS011;24320;56.980;24.336;2022-10-15T00:46:24;17.48;;;9.00;;
28653;SDS011;24320;56.980;24.336;2022-10-15T00:48:57;13.93;;;6.85;;
28653;SDS011;24320;56.980;24.336;2022-10-15T00:51:59;19.05;;;7.65;;
28653;SDS011;24320;56.980;24.336;2022-10-15T00:54:30;15.90;;;7.57;;
28653;SDS011;24320;56.980;24.336;2022-10-15T00:57:04;20.75;;;7.15;;
28653;SDS011;24320;56.980;24.336;2022-10-15T00:59:33;17.10;;;8.10;;
28653;SDS011;24320;56.980;24.336;2022-10-15T01:02:04;15.68;;;7.97;;
28653;SDS011;24320;56.980;24.336;2022-10-15T01:04:32;20.00;;;8.57;;
28653;SDS011;24320;56.980;24.336;2022-10-15T01:06:59;17.42;;;8.18;;
28653;SDS011;24320;56.980;24.336;2022-10-15T01:09:26;14.68;;;7.97;;
28653;SDS011;24320;56.980;24.336;2022-10-15T01:11:54;21.55;;;8.10;;
28653;SDS011;24320;56.980;24.336;2022-10-15T01:27:48;14.57;;;7.63;;
28653;SDS011;24320;56.980;24.336;2022-10-15T01:33:33;14.48;;;7.10;;
28653;SDS011;24320;56.980;24.336;2022-10-15T01:41:40;12.73;;;7.25;;
28653;SDS011;24320;56.980;24.336;2022-10-15T01:46:57;16.45;;;7.63;;
28653;SDS011;24320;56.980;24.336;2022-10-15T01:49:29;18.15;;;6.63;;
28653;SDS011;24320;56.980;24.336;2022-10-15T01:52:02;17.15;;;7.63;;
28653;SDS011;24320;56.980;24.336;2022-10-15T01:54:35;19.13;;;7.07;;
28653;SDS011;24320;56.980;24.336;2022-10-15T01:57:03;16.60;;;7.50;;
28653;SDS011;24320;56.980;24.336;2022-10-15T01:59:32;19.73;;;6.85;;
28653;SDS011;24320;56.980;24.336;2022-10-15T02:02:00;13.60;;;7.05;;
28653;SDS011;24320;56.980;24.336;2022-10-15T02:04:28;18.60;;;6.97;;
28653;SDS011;24320;56.980;24.336;2022-10-15T02:09:44;14.07;;;6.80;;
28653;SDS011;24320;56.980;24.336;2022-10-15T02:18:04;14.73;;;6.82;;
28653;SDS011;24320;56.980;24.336;2022-10-15T02:21:01;12.25;;;6.50;;
28653;SDS011;24320;56.980;24.336;2022-10-15T02:26:06;14.48;;;6.53;;
28653;SDS011;24320;56.980;24.336;2022-10-15T02:28:35;14.88;;;6.88;;
28653;SDS011;24320;56.980;24.336;2022-10-15T02:31:04;13.30;;;6.72;;
28653;SDS011;24320;56.980;24.336;2022-10-15T02:33:35;16.27;;;6.70;;
28653;SDS011;24320;56.980;24.336;2022-10-15T02:36:03;15.30;;;6.80;;
28653;SDS011;24320;56.980;24.336;2022-10-15T02:38:31;13.45;;;7.05;;
28653;SDS011;24320;56.980;24.336;2022-10-15T02:40:59;11.07;;;5.93;;
28653;SDS011;24320;56.980;24.336;2022-10-15T02:43:27;14.10;;;6.22;;
28653;SDS011;24320;56.980;24.336;2022-10-15T02:45:54;10.18;;;6.07;;
28653;SDS011;24320;56.980;24.336;2022-10-15T02:48:21;15.10;;;6.85;;
28653;SDS011;24320;56.980;24.336;2022-10-15T02:50:48;11.63;;;6.05;;
28653;SDS011;24320;56.980;24.336;2022-10-15T02:53:15;12.32;;;6.15;;
28653;SDS011;24320;56.980;24.336;2022-10-15T02:55:42;17.08;;;6.07;;
28653;SDS011;24320;56.980;24.336;2022-10-15T02:58:09;11.90;;;6.13;;
28653;SDS011;24320;56.980;24.336;2022-10-15T03:00:36;17.00;;;6.75;;
28653;SDS011;24320;56.980;24.336;2022-10-15T03:03:03;12.40;;;6.03;;
28653;SDS011;24320;56.980;24.336;2022-10-15T03:05:30;12.73;;;6.53;;
28653;SDS011;24320;56.980;24.336;2022-10-15T03:07:58;11.27;;;6.45;;
28653;SDS011;24320;56.980;24.336;2022-10-15T03:10:25;11.82;;;6.13;;
28653;SDS011;24320;56.980;24.336;2022-10-15T03:12:52;14.68;;;5.97;;
28653;SDS011;24320;56.980;24.336;2022-10-15T03:15:19;11.93;;;6.18;;
28653;SDS011;24320;56.980;24.336;2022-10-15T03:17:46;12.30;;;5.60;;
28653;SDS011;24320;56.980;24.336;2022-10-15T03:20:13;18.55;;;6.45;;
28653;SDS011;24320;56.980;24.336;2022-10-15T03:22:40;13.32;;;6.50;;
28653;SDS011;24320;56.980;24.336;2022-10-15T03:25:07;11.27;;;5.97;;
28653;SDS011;24320;56.980;24.336;2022-10-15T03:27:34;13.02;;;6.18;;
28653;SDS011;24320;56.980;24.336;2022-10-15T03:30:01;11.93;;;6.03;;
28653;SDS011;24320;56.980;24.336;2022-10-15T03:32:28;9.60;;;5.63;;
28653;SDS011;24320;56.980;24.336;2022-10-15T03:35:00;12.52;;;6.20;;
28653;SDS011;24320;56.980;24.336;2022-10-15T03:37:27;11.82;;;5.47;;
28653;SDS011;24320;56.980;24.336;2022-10-15T03:39:54;19.60;;;6.50;;
28653;SDS011;24320;56.980;24.336;2022-10-15T03:42:21;10.93;;;5.43;;
28653;SDS011;24320;56.980;24.336;2022-10-15T03:44:49;12.43;;;5.93;;
28653;SDS011;24320;56.980;24.336;2022-10-15T03:47:15;17.05;;;5.68;;
28653;SDS011;24320;56.980;24.336;2022-10-15T03:49:42;14.73;;;6.40;;
28653;SDS011;24320;56.980;24.336;2022-10-15T03:52:09;10.45;;;5.40;;
28653;SDS011;24320;56.980;24.336;2022-10-15T03:54:36;11.77;;;6.22;;
28653;SDS011;24320;56.980;24.336;2022-10-15T03:57:03;11.95;;;5.72;;
28653;SDS011;24320;56.980;24.336;2022-10-15T03:59:31;11.50;;;6.40;;
28653;SDS011;24320;56.980;24.336;2022-10-15T04:01:58;11.90;;;6.25;;
28653;SDS011;24320;56.980;24.336;2022-10-15T04:04:25;9.38;;;5.72;;
28653;SDS011;24320;56.980;24.336;2022-10-15T04:06:52;15.38;;;6.97;;
28653;SDS011;24320;56.980;24.336;2022-10-15T04:09:19;11.77;;;5.93;;
28653;SDS011;24320;56.980;24.336;2022-10-15T04:11:46;15.52;;;6.40;;
28653;SDS011;24320;56.980;24.336;2022-10-15T04:14:12;12.75;;;6.53;;
28653;SDS011;24320;56.980;24.336;2022-10-15T04:16:39;11.82;;;6.45;;
28653;SDS011;24320;56.980;24.336;2022-10-15T04:19:07;16.45;;;6.45;;
28653;SDS011;24320;56.980;24.336;2022-10-15T04:21:36;11.52;;;6.55;;
28653;SDS011;24320;56.980;24.336;2022-10-15T04:24:03;12.50;;;6.80;;
28653;SDS011;24320;56.980;24.336;2022-10-15T04:26:30;18.27;;;7.07;;
28653;SDS011;24320;56.980;24.336;2022-10-15T04:28:57;9.55;;;6.03;;
28653;SDS011;24320;56.980;24.336;2022-10-15T04:31:24;9.77;;;5.75;;
28653;SDS011;24320;56.980;24.336;2022-10-15T04:33:51;11.75;;;6.57;;
28653;SDS011;24320;56.980;24.336;2022-10-15T04:36:18;15.23;;;6.55;;
28653;SDS011;24320;56.980;24.336;2022-10-15T04:38:45;16.45;;;8.02;;
28653;SDS011;24320;56.980;24.336;2022-10-15T04:41:12;11.45;;;6.68;;
28653;SDS011;24320;56.980;24.336;2022-10-15T04:43:39;17.08;;;6.78;;
28653;SDS011;24320;56.980;24.336;2022-10-15T04:46:07;14.63;;;6.07;;
28653;SDS011;24320;56.980;24.336;2022-10-15T04:48:35;11.63;;;6.70;;
28653;SDS011;24320;56.980;24.336;2022-10-15T04:53:40;13.18;;;6.95;;
28653;SDS011;24320;56.980;24.336;2022-10-15T04:56:09;14.95;;;7.35;;
28653;SDS011;24320;56.980;24.336;2022-10-15T04:58:41;12.07;;;6.47;;
28653;SDS011;24320;56.980;24.336;2022-10-15T05:01:09;12.80;;;6.72;;
28653;SDS011;24320;56.980;24.336;2022-10-15T05:03:39;17.10;;;7.32;;
28653;SDS011;24320;56.980;24.336;2022-10-15T05:06:11;14.38;;;6.95;;
28653;SDS011;24320;56.980;24.336;2022-10-15T05:08:40;12.43;;;6.93;;
28653;SDS011;24320;56.980;24.336;2022-10-15T05:11:19;18.92;;;7.38;;
28653;SDS011;24320;56.980;24.336;2022-10-15T05:13:48;17.40;;;7.03;;
28653;SDS011;24320;56.980;24.336;2022-10-15T05:16:19;12.23;;;6.75;;
28653;SDS011;24320;56.980;24.336;2022-10-15T05:18:49;14.02;;;6.70;;
28653;SDS011;24320;56.980;24.336;2022-10-15T05:21:17;11.65;;;6.60;;
28653;SDS011;24320;56.980;24.336;2022-10-15T05:23:47;15.27;;;6.32;;
28653;SDS011;24320;56.980;24.336;2022-10-15T05:26:16;13.00;;;6.55;;
28653;SDS011;24320;56.980;24.336;2022-10-15T05:28:48;14.85;;;7.25;;
28653;SDS011;24320;56.980;24.336;2022-10-15T05:31:16;14.20;;;6.78;;
28653;SDS011;24320;56.980;24.336;2022-10-15T05:33:48;15.52;;;7.45;;
28653;SDS011;24320;56.980;24.336;2022-10-15T05:36:24;26.02;;;7.15;;
28653;SDS011;24320;56.980;24.336;2022-10-15T05:38:54;16.33;;;7.38;;
28653;SDS011;24320;56.980;24.336;2022-10-15T05:41:22;14.25;;;7.32;;
28653;SDS011;24320;56.980;24.336;2022-10-15T05:43:51;13.68;;;7.68;;
28653;SDS011;24320;56.980;24.336;2022-10-15T05:46:20;13.82;;;7.63;;
28653;SDS011;24320;56.980;24.336;2022-10-15T05:48:48;16.20;;;6.78;;
28653;SDS011;24320;56.980;24.336;2022-10-15T05:51:20;13.18;;;7.28;;
28653;SDS011;24320;56.980;24.336;2022-10-15T05:53:54;15.20;;;7.43;;
28653;SDS011;24320;56.980;24.336;2022-10-15T05:56:22;20.13;;;7.32;;
28653;SDS011;24320;56.980;24.336;2022-10-15T05:58:50;14.05;;;7.07;;
28653;SDS011;24320;56.980;24.336;2022-10-15T06:01:17;14.80;;;7.20;;
28653;SDS011;24320;56.980;24.336;2022-10-15T06:03:44;15.23;;;7.07;;
28653;SDS011;24320;56.980;24.336;2022-10-15T06:06:12;13.75;;;8.15;;
28653;SDS011;24320;56.980;24.336;2022-10-15T06:08:47;14.65;;;7.35;;
28653;SDS011;24320;56.980;24.336;2022-10-15T06:11:14;15.65;;;8.07;;
28653;SDS011;24320;56.980;24.336;2022-10-15T06:13:43;20.17;;;7.53;;
28653;SDS011;24320;56.980;24.336;2022-10-15T06:16:10;13.23;;;7.40;;
28653;SDS011;24320;56.980;24.336;2022-10-15T06:18:41;15.50;;;7.70;;
28653;SDS011;24320;56.980;24.336;2022-10-15T06:21:08;15.23;;;7.38;;
28653;SDS011;24320;56.980;24.336;2022-10-15T06:23:36;12.13;;;7.13;;
28653;SDS011;24320;56.980;24.336;2022-10-15T06:26:04;11.02;;;6.75;;
28653;SDS011;24320;56.980;24.336;2022-10-15T06:28:32;15.18;;;7.95;;
28653;SDS011;24320;56.980;24.336;2022-10-15T06:31:00;15.27;;;7.65;;
28653;SDS011;24320;56.980;24.336;2022-10-15T06:33:28;11.65;;;6.93;;
28653;SDS011;24320;56.980;24.336;2022-10-15T06:35:59;13.75;;;7.22;;
28653;SDS011;24320;56.980;24.336;2022-10-15T06:38:30;18.10;;;7.22;;
28653;SDS011;24320;56.980;24.336;2022-10-15T06:40:57;14.02;;;7.07;;
28653;SDS011;24320;56.980;24.336;2022-10-15T06:43:24;14.40;;;7.07;;
28653;SDS011;24320;56.980;24.336;2022-10-15T06:45:57;15.00;;;7.22;;
28653;SDS011;24320;56.980;24.336;2022-10-15T06:48:24;12.43;;;7.10;;
28653;SDS011;24320;56.980;24.336;2022-10-15T06:50:52;13.75;;;8.05;;
28653;SDS011;24320;56.980;24.336;2022-10-15T06:53:19;17.40;;;7.35;;
28653;SDS011;24320;56.980;24.336;2022-10-15T06:55:47;13.18;;;6.93;;
28653;SDS011;24320;56.980;24.336;2022-10-15T06:58:14;14.77;;;6.70;;
28653;SDS011;24320;56.980;24.336;2022-10-15T07:00:41;13.23;;;7.20;;
28653;SDS011;24320;56.980;24.336;2022-10-15T07:03:08;14.07;;;6.90;;
28653;SDS011;24320;56.980;24.336;2022-10-15T07:05:35;14.35;;;6.80;;
28653;SDS011;24320;56.980;24.336;2022-10-15T07:08:02;18.60;;;7.05;;
28653;SDS011;24320;56.980;24.336;2022-10-15T07:10:29;11.10;;;6.25;;
28653;SDS011;24320;56.980;24.336;2022-10-15T07:12:58;17.08;;;7.50;;
28653;SDS011;24320;56.980;24.336;2022-10-15T07:15:26;13.95;;;7.15;;
28653;SDS011;24320;56.980;24.336;2022-10-15T07:18:01;13.60;;;7.03;;
28653;SDS011;24320;56.980;24.336;2022-10-15T07:20:29;14.75;;;7.55;;
28653;SDS011;24320;56.980;24.336;2022-10-15T07:22:58;12.60;;;6.60;;
28653;SDS011;24320;56.980;24.336;2022-10-15T07:25:26;14.82;;;7.88;;
28653;SDS011;24320;56.980;24.336;2022-10-15T07:27:54;14.23;;;7.20;;
28653;SDS011;24320;56.980;24.336;2022-10-15T07:30:22;16.13;;;7.55;;
28653;SDS011;24320;56.980;24.336;2022-10-15T07:32:59;14.75;;;7.30;;
28653;SDS011;24320;56.980;24.336;2022-10-15T07:35:26;13.02;;;7.18;;
28653;SDS011;24320;56.980;24.336;2022-10-15T07:37:53;16.48;;;7.57;;
28653;SDS011;24320;56.980;24.336;2022-10-15T07:40:20;15.05;;;7.30;;
28653;SDS011;24320;56.980;24.336;2022-10-15T07:42:51;17.60;;;7.32;;
28653;SDS011;24320;56.980;24.336;2022-10-15T07:45:22;13.32;;;7.40;;
28653;SDS011;24320;56.980;24.336;2022-10-15T07:47:50;16.15;;;7.75;;
28653;SDS011;24320;56.980;24.336;2022-10-15T07:50:18;17.45;;;7.82;;
28653;SDS011;24320;56.980;24.336;2022-10-15T07:52:46;14.68;;;7.60;;
28653;SDS011;24320;56.980;24.336;2022-10-15T07:55:13;20.73;;;7.47;;
28653;SDS011;24320;56.980;24.336;2022-10-15T07:57:40;14.38;;;6.90;;
28653;SDS011;24320;56.980;24.336;2022-10-15T08:00:07;15.55;;;7.90;;
28653;SDS011;24320;56.980;24.336;2022-10-15T08:02:34;11.30;;;6.97;;
28653;SDS011;24320;56.980;24.336;2022-10-15T08:05:01;18.52;;;7.70;;
28653;SDS011;24320;56.980;24.336;2022-10-15T08:07:28;15.43;;;7.78;;
28653;SDS011;24320;56.980;24.336;2022-10-15T08:09:55;17.75;;;7.55;;
28653;SDS011;24320;56.980;24.336;2022-10-15T08:12:22;18.55;;;7.88;;
28653;SDS011;24320;56.980;24.336;2022-10-15T08:14:50;14.60;;;7.75;;
28653;SDS011;24320;56.980;24.336;2022-10-15T08:17:17;14.07;;;7.40;;
28653;SDS011;24320;56.980;24.336;2022-10-15T08:19:43;17.20;;;7.20;;
28653;SDS011;24320;56.980;24.336;2022-10-15T08:22:10;15.20;;;7.68;;
28653;SDS011;24320;56.980;24.336;2022-10-15T08:24:38;15.63;;;7.32;;
28653;SDS011;24320;56.980;24.336;2022-10-15T08:27:04;15.98;;;7.97;;
28653;SDS011;24320;56.980;24.336;2022-10-15T08:29:31;13.20;;;7.20;;
28653;SDS011;24320;56.980;24.336;2022-10-15T08:31:58;16.77;;;7.43;;
28653;SDS011;24320;56.980;24.336;2022-10-15T08:34:25;14.25;;;7.90;;
28653;SDS011;24320;56.980;24.336;2022-10-15T08:36:52;16.52;;;7.80;;
28653;SDS011;24320;56.980;24.336;2022-10-15T08:39:19;20.10;;;8.38;;
28653;SDS011;24320;56.980;24.336;2022-10-15T08:41:53;16.30;;;8.80;;
28653;SDS011;24320;56.980;24.336;2022-10-15T08:44:24;16.15;;;8.57;;
28653;SDS011;24320;56.980;24.336;2022-10-15T08:46:55;18.65;;;8.52;;
28653;SDS011;24320;56.980;24.336;2022-10-15T08:54:55;17.75;;;8.82;;
28653;SDS011;24320;56.980;24.336;2022-10-15T08:59:59;15.63;;;8.70;;
28653;SDS011;24320;56.980;24.336;2022-10-15T09:02:34;20.38;;;9.60;;
28653;SDS011;24320;56.980;24.336;2022-10-15T09:05:29;16.88;;;9.85;;
28653;SDS011;24320;56.980;24.336;2022-10-15T09:08:01;20.05;;;9.38;;
28653;SDS011;24320;56.980;24.336;2022-10-15T09:10:51;20.17;;;8.90;;
28653;SDS011;24320;56.980;24.336;2022-10-15T09:13:37;19.08;;;8.98;;
28653;SDS011;24320;56.980;24.336;2022-10-15T09:18:45;22.73;;;9.23;;
28653;SDS011;24320;56.980;24.336;2022-10-15T09:21:14;18.10;;;9.55;;
28653;SDS011;24320;56.980;24.336;2022-10-15T09:23:42;20.67;;;8.75;;
28653;SDS011;24320;56.980;24.336;2022-10-15T09:26:19;15.27;;;8.10;;
28653;SDS011;24320;56.980;24.336;2022-10-15T09:29:11;21.00;;;9.27;;
28653;SDS011;24320;56.980;24.336;2022-10-15T09:31:50;16.63;;;8.18;;
28653;SDS011;24320;56.980;24.336;2022-10-15T09:43:18;22.92;;;8.90;;
28653;SDS011;24320;56.980;24.336;2022-10-15T09:45:56;19.23;;;9.10;;
28653;SDS011;24320;56.980;24.336;2022-10-15T09:48:23;17.38;;;8.30;;
28653;SDS011;24320;56.980;24.336;2022-10-15T09:56:37;16.90;;;9.23;;
28653;SDS011;24320;56.980;24.336;2022-10-15T09:59:12;22.15;;;10.30;;
28653;SDS011;24320;56.980;24.336;2022-10-15T10:02:30;20.65;;;9.98;;
28653;SDS011;24320;56.980;24.336;2022-10-15T10:04:40;16.48;;;9.40;;
28653;SDS011;24320;56.980;24.336;2022-10-15T10:07:07;18.83;;;9.25;;
28653;SDS011;24320;56.980;24.336;2022-10-15T10:10:01;17.40;;;9.68;;
28653;SDS011;24320;56.980;24.336;2022-10-15T10:12:31;19.58;;;10.43;;
28653;SDS011;24320;56.980;24.336;2022-10-15T10:15:04;21.10;;;10.23;;
28653;SDS011;24320;56.980;24.336;2022-10-15T10:17:51;22.65;;;10.10;;
28653;SDS011;24320;56.980;24.336;2022-10-15T10:20:19;20.17;;;10.38;;
28653;SDS011;24320;56.980;24.336;2022-10-15T10:27:52;22.95;;;10.85;;
28653;SDS011;24320;56.980;24.336;2022-10-15T10:30:20;21.25;;;11.48;;
28653;SDS011;24320;56.980;24.336;2022-10-15T10:32:48;20.95;;;11.13;;
28653;SDS011;24320;56.980;24.336;2022-10-15T10:35:24;19.92;;;10.63;;
28653;SDS011;24320;56.980;24.336;2022-10-15T10:37:58;22.00;;;11.15;;
28653;SDS011;24320;56.980;24.336;2022-10-15T10:40:30;25.25;;;12.13;;
28653;SDS011;24320;56.980;24.336;2022-10-15T10:43:18;24.52;;;11.05;;
28653;SDS011;24320;56.980;24.336;2022-10-15T10:45:58;27.73;;;13.15;;
28653;SDS011;24320;56.980;24.336;2022-10-15T10:51:15;25.80;;;12.88;;
28653;SDS011;24320;56.980;24.336;2022-10-15T10:53:55;28.77;;;13.57;;
28653;SDS011;24320;56.980;24.336;2022-10-15T10:56:26;25.23;;;12.55;;
28653;SDS011;24320;56.980;24.336;2022-10-15T10:59:01;25.23;;;12.32;;
28653;SDS011;24320;56.980;24.336;2022-10-15T11:01:35;26.00;;;12.20;;
28653;SDS011;24320;56.980;24.336;2022-10-15T11:04:02;29.02;;;13.30;;
28653;SDS011;24320;56.980;24.336;2022-10-15T11:06:48;28.88;;;13.32;;
28653;SDS011;24320;56.980;24.336;2022-10-15T11:12:17;21.77;;;11.68;;
28653;SDS011;24320;56.980;24.336;2022-10-15T11:29:33;27.75;;;13.30;;
28653;SDS011;24320;56.980;24.336;2022-10-15T11:35:38;33.33;;;14.57;;
28653;SDS011;24320;56.980;24.336;2022-10-15T11:52:01;28.60;;;14.13;;
28653;SDS011;24320;56.980;24.336;2022-10-15T11:57:07;28.63;;;13.48;;
28653;SDS011;24320;56.980;24.336;2022-10-15T12:02:13;27.20;;;13.48;;
28653;SDS011;24320;56.980;24.336;2022-10-15T12:04:46;31.48;;;13.50;;
28653;SDS011;24320;56.980;24.336;2022-10-15T12:07:22;32.20;;;14.43;;
28653;SDS011;24320;56.980;24.336;2022-10-15T12:09:56;30.77;;;14.90;;
28653;SDS011;24320;56.980;24.336;2022-10-15T12:12:46;31.75;;;14.43;;
28653;SDS011;24320;56.980;24.336;2022-10-15T12:18:16;37.92;;;15.85;;
28653;SDS011;24320;56.980;24.336;2022-10-15T12:20:45;32.13;;;15.07;;
28653;SDS011;24320;56.980;24.336;2022-10-15T12:23:25;32.55;;;15.13;;
28653;SDS011;24320;56.980;24.336;2022-10-15T12:26:24;35.17;;;15.80;;
28653;SDS011;24320;56.980;24.336;2022-10-15T12:28:54;34.90;;;14.77;;
28653;SDS011;24320;56.980;24.336;2022-10-15T12:31:43;33.97;;;16.23;;
28653;SDS011;24320;56.980;24.336;2022-10-15T12:34:29;36.50;;;16.15;;
28653;SDS011;24320;56.980;24.336;2022-10-15T12:37:05;30.85;;;15.63;;
28653;SDS011;24320;56.980;24.336;2022-10-15T12:39:42;36.65;;;16.02;;
28653;SDS011;24320;56.980;24.336;2022-10-15T12:42:20;30.55;;;14.57;;
28653;SDS011;24320;56.980;24.336;2022-10-15T12:44:53;36.00;;;16.58;;
28653;SDS011;24320;56.980;24.336;2022-10-15T12:50:25;30.35;;;14.30;;
28653;SDS011;24320;56.980;24.336;2022-10-15T12:57:59;31.42;;;15.65;;
28653;SDS011;24320;56.980;24.336;2022-10-15T13:00:45;32.75;;;15.10;;
28653;SDS011;24320;56.980;24.336;2022-10-15T13:06:14;30.77;;;14.48;;
28653;SDS011;24320;56.980;24.336;2022-10-15T13:09:04;31.52;;;14.20;;
28653;SDS011;24320;56.980;24.336;2022-10-15T13:16:58;27.25;;;13.38;;
28653;SDS011;24320;56.980;24.336;2022-10-15T13:19:30;24.40;;;13.02;;
28653;SDS011;24320;56.980;24.336;2022-10-15T13:22:17;28.40;;;13.13;;
28653;SDS011;24320;56.980;24.336;2022-10-15T13:24:50;29.92;;;13.88;;
28653;SDS011;24320;56.980;24.336;2022-10-15T13:27:22;25.45;;;12.85;;
28653;SDS011;24320;56.980;24.336;2022-10-15T13:30:06;36.63;;;15.00;;
28653;SDS011;24320;56.980;24.336;2022-10-15T13:32:45;26.67;;;13.48;;
28653;SDS011;24320;56.980;24.336;2022-10-15T13:37:47;25.52;;;12.93;;
28653;SDS011;24320;56.980;24.336;2022-10-15T13:40:19;26.27;;;12.48;;
28653;SDS011;24320;56.980;24.336;2022-10-15T13:43:00;26.73;;;11.60;;
28653;SDS011;24320;56.980;24.336;2022-10-15T13:45:32;31.20;;;13.27;;
28653;SDS011;24320;56.980;24.336;2022-10-15T13:47:59;29.65;;;12.93;;
28653;SDS011;24320;56.980;24.336;2022-10-15T13:50:30;20.05;;;10.98;;
28653;SDS011;24320;56.980;24.336;2022-10-15T13:55:37;39.05;;;19.58;;
28653;SDS011;24320;56.980;24.336;2022-10-15T14:01:06;21.20;;;11.27;;
28653;SDS011;24320;56.980;24.336;2022-10-15T14:03:44;25.25;;;12.52;;
28653;SDS011;24320;56.980;24.336;2022-10-15T14:06:18;23.60;;;11.80;;
28653;SDS011;24320;56.980;24.336;2022-10-15T14:08:52;20.63;;;11.50;;
28653;SDS011;24320;56.980;24.336;2022-10-15T14:11:21;20.95;;;11.25;;
28653;SDS011;24320;56.980;24.336;2022-10-15T14:13:49;20.58;;;11.05;;
28653;SDS011;24320;56.980;24.336;2022-10-15T14:16:19;21.35;;;11.80;;
28653;SDS011;24320;56.980;24.336;2022-10-15T14:18:57;23.70;;;11.70;;
28653;SDS011;24320;56.980;24.336;2022-10-15T14:21:36;22.85;;;11.70;;
28653;SDS011;24320;56.980;24.336;2022-10-15T14:24:22;24.90;;;11.43;;
28653;SDS011;24320;56.980;24.336;2022-10-15T14:26:59;28.05;;;11.75;;
28653;SDS011;24320;56.980;24.336;2022-10-15T14:29:46;21.20;;;11.13;;
28653;SDS011;24320;56.980;24.336;2022-10-15T14:32:18;18.33;;;9.73;;
28653;SDS011;24320;56.980;24.336;2022-10-15T14:34:48;19.65;;;11.18;;
28653;SDS011;24320;56.980;24.336;2022-10-15T14:37:31;18.10;;;9.98;;
28653;SDS011;24320;56.980;24.336;2022-10-15T14:40:07;18.52;;;10.10;;
28653;SDS011;24320;56.980;24.336;2022-10-15T14:42:59;21.88;;;10.73;;
28653;SDS011;24320;56.980;24.336;2022-10-15T14:45:30;23.15;;;11.65;;
28653;SDS011;24320;56.980;24.336;2022-10-15T14:48:10;20.73;;;10.95;;
28653;SDS011;24320;56.980;24.336;2022-10-15T14:50:43;22.00;;;11.13;;
28653;SDS011;24320;56.980;24.336;2022-10-15T14:53:15;23.88;;;11.40;;
28653;SDS011;24320;56.980;24.336;2022-10-15T14:56:05;19.67;;;10.65;;
28653;SDS011;24320;56.980;24.336;2022-10-15T14:58:39;22.70;;;11.85;;
28653;SDS011;24320;56.980;24.336;2022-10-15T15:01:18;25.92;;;10.52;;
28653;SDS011;24320;56.980;24.336;2022-10-15T15:03:50;19.27;;;10.63;;
28653;SDS011;24320;56.980;24.336;2022-10-15T15:06:18;19.65;;;10.18;;
28653;SDS011;24320;56.980;24.336;2022-10-15T15:08:45;25.40;;;11.85;;
28653;SDS011;24320;56.980;24.336;2022-10-15T15:11:20;22.33;;;11.35;;
28653;SDS011;24320;56.980;24.336;2022-10-15T15:13:49;26.50;;;12.55;;
28653;SDS011;24320;56.980;24.336;2022-10-15T15:16:17;22.30;;;12.32;;
28653;SDS011;24320;56.980;24.336;2022-10-15T15:18:44;24.58;;;11.85;;
28653;SDS011;24320;56.980;24.336;2022-10-15T15:21:19;22.75;;;12.57;;
28653;SDS011;24320;56.980;24.336;2022-10-15T15:23:48;24.05;;;12.20;;
28653;SDS011;24320;56.980;24.336;2022-10-15T15:26:15;26.38;;;12.55;;
28653;SDS011;24320;56.980;24.336;2022-10-15T15:28:42;24.00;;;12.50;;
28653;SDS011;24320;56.980;24.336;2022-10-15T15:31:14;23.15;;;12.52;;
28653;SDS011;24320;56.980;24.336;2022-10-15T15:33:43;25.10;;;11.75;;
28653;SDS011;24320;56.980;24.336;2022-10-15T15:36:13;30.45;;;12.90;;
28653;SDS011;24320;56.980;24.336;2022-10-15T15:38:48;28.27;;;13.35;;
28653;SDS011;24320;56.980;24.336;2022-10-15T15:41:17;34.03;;;20.42;;
28653;SDS011;24320;56.980;24.336;2022-10-15T15:43:45;28.27;;;13.23;;
28653;SDS011;24320;56.980;24.336;2022-10-15T15:46:13;28.17;;;13.32;;
28653;SDS011;24320;56.980;24.336;2022-10-15T15:48:40;27.10;;;12.60;;
28653;SDS011;24320;56.980;24.336;2022-10-15T15:51:21;27.75;;;13.50;;
28653;SDS011;24320;56.980;24.336;2022-10-15T15:53:50;30.85;;;13.65;;
28653;SDS011;24320;56.980;24.336;2022-10-15T15:56:17;27.60;;;13.18;;
28653;SDS011;24320;56.980;24.336;2022-10-15T15:58:44;26.98;;;13.65;;
28653;SDS011;24320;56.980;24.336;2022-10-15T16:01:11;28.80;;;14.70;;
28653;SDS011;24320;56.980;24.336;2022-10-15T16:03:38;23.55;;;12.77;;
28653;SDS011;24320;56.980;24.336;2022-10-15T16:06:06;24.92;;;13.02;;
28653;SDS011;24320;56.980;24.336;2022-10-15T16:08:33;28.52;;;12.65;;
28653;SDS011;24320;56.980;24.336;2022-10-15T16:11:01;30.05;;;14.52;;
28653;SDS011;24320;56.980;24.336;2022-10-15T16:13:29;25.73;;;11.93;;
28653;SDS011;24320;56.980;24.336;2022-10-15T16:15:56;24.85;;;12.20;;
28653;SDS011;24320;56.980;24.336;2022-10-15T16:18:23;27.13;;;11.43;;
28653;SDS011;24320;56.980;24.336;2022-10-15T16:20:50;20.75;;;10.73;;
28653;SDS011;24320;56.980;24.336;2022-10-15T16:23:17;18.15;;;10.55;;
28653;SDS011;24320;56.980;24.336;2022-10-15T16:25:44;23.63;;;10.18;;
28653;SDS011;24320;56.980;24.336;2022-10-15T16:28:11;27.13;;;11.85;;
28653;SDS011;24320;56.980;24.336;2022-10-15T16:30:38;32.15;;;12.98;;
28653;SDS011;24320;56.980;24.336;2022-10-15T16:33:05;25.60;;;12.20;;
28653;SDS011;24320;56.980;24.336;2022-10-15T16:35:37;19.85;;;9.93;;
28653;SDS011;24320;56.980;24.336;2022-10-15T16:38:04;26.10;;;11.27;;
28653;SDS011;24320;56.980;24.336;2022-10-15T16:40:31;17.90;;;9.88;;
28653;SDS011;24320;56.980;24.336;2022-10-15T16:42:59;24.23;;;11.38;;
28653;SDS011;24320;56.980;24.336;2022-10-15T16:45:25;27.30;;;11.25;;
28653;SDS011;24320;56.980;24.336;2022-10-15T16:47:52;23.23;;;9.82;;
28653;SDS011;24320;56.980;24.336;2022-10-15T16:50:19;25.52;;;12.35;;
28653;SDS011;24320;56.980;24.336;2022-10-15T16:52:47;33.90;;;13.02;;
28653;SDS011;24320;56.980;24.336;2022-10-15T16:55:14;22.05;;;11.68;;
28653;SDS011;24320;56.980;24.336;2022-10-15T16:57:43;29.95;;;13.02;;